TRUSK53 EGVN-EGVN

Flight info

Callsign TRUSK53
Flight time N/A
Altitude 3000
Route OPR LFA2 D123 D125 D128
Aircraft A400/H-SDGHIRTUWXYZ/HB1

Departure

Time 2026-05-06 20:28
Airport RAF Brize Norton (EGVN)

Arrival

Time N/A
Airport RAF Brize Norton (EGVN)
Time Latitude Longitude Altitude Speed Heading
2026-05-06 20:08 51.75753 -1.57025 273 ft 0 kts 109°
2026-05-06 20:19 51.75750 -1.57009 273 ft 3 kts 109°
2026-05-06 20:19 51.75744 -1.56957 273 ft 5 kts 84°
2026-05-06 20:20 51.75772 -1.56921 275 ft 5 kts 11°
2026-05-06 20:20 51.75810 -1.56950 275 ft 7 kts 325°
2026-05-06 20:20 51.75837 -1.56998 273 ft 5 kts 313°
2026-05-06 20:20 51.75865 -1.57054 273 ft 8 kts 304°
2026-05-06 20:21 51.75900 -1.57146 273 ft 11 kts 294°
2026-05-06 20:21 51.75932 -1.57272 277 ft 13 kts 289°
2026-05-06 20:21 51.75934 -1.57404 273 ft 13 kts 270°
2026-05-06 20:21 51.75902 -1.57507 273 ft 10 kts 217°
2026-05-06 20:22 51.75828 -1.57554 273 ft 13 kts 198°
2026-05-06 20:22 51.75734 -1.57603 273 ft 15 kts 198°
2026-05-06 20:22 51.75624 -1.57659 273 ft 17 kts 197°
2026-05-06 20:22 51.75511 -1.57738 273 ft 18 kts 211°
2026-05-06 20:23 51.75398 -1.57840 274 ft 19 kts 207°
2026-05-06 20:23 51.75274 -1.57941 274 ft 20 kts 206°
2026-05-06 20:23 51.75149 -1.58052 274 ft 21 kts 210°
2026-05-06 20:23 51.75019 -1.58161 273 ft 22 kts 207°
2026-05-06 20:24 51.74885 -1.58274 273 ft 22 kts 208°
2026-05-06 20:24 51.74750 -1.58389 278 ft 22 kts 207°
2026-05-06 20:24 51.74661 -1.58510 273 ft 16 kts 244°
2026-05-06 20:24 51.74614 -1.58684 277 ft 18 kts 248°
2026-05-06 20:25 51.74580 -1.58875 273 ft 19 kts 254°
2026-05-06 20:25 51.74544 -1.59084 276 ft 19 kts 253°
2026-05-06 20:25 51.74505 -1.59294 273 ft 20 kts 253°
2026-05-06 20:25 51.74466 -1.59514 273 ft 21 kts 253°
2026-05-06 20:26 51.74427 -1.59739 273 ft 21 kts 264°
2026-05-06 20:26 51.74469 -1.59956 276 ft 20 kts 298°
2026-05-06 20:26 51.74487 -1.60155 273 ft 18 kts 264°
2026-05-06 20:26 51.74537 -1.60318 274 ft 16 kts 315°
2026-05-06 20:27 51.74621 -1.60355 276 ft 12 kts 56°
2026-05-06 20:27 51.74645 -1.60219 274 ft 19 kts 74°
2026-05-06 20:27 51.74778 -1.59495 272 ft 118 kts 74°
2026-05-06 20:27 51.75065 -1.57931 724 ft 157 kts 73°
2026-05-06 20:28 51.75379 -1.56191 1626 ft 167 kts 73°
2026-05-06 20:28 51.75885 -1.54236 1699 ft 213 kts 48°
2026-05-06 20:28 51.77284 -1.53145 1662 ft 240 kts
2026-05-06 20:28 51.78884 -1.53927 1583 ft 250 kts 323°
2026-05-06 20:29 51.79787 -1.56225 1667 ft 240 kts 290°
2026-05-06 20:29 51.80128 -1.57923 1731 ft 242 kts 289°
2026-05-06 20:29 51.80661 -1.60550 1832 ft 249 kts 290°
2026-05-06 20:29 51.81211 -1.63214 1917 ft 251 kts 287°
2026-05-06 20:30 51.81518 -1.65999 1841 ft 254 kts 278°
2026-05-06 20:30 51.81746 -1.71657 1334 ft 251 kts 270°
2026-05-06 20:30 51.81865 -1.74452 1185 ft 249 kts 280°
2026-05-06 20:31 51.82155 -1.77249 1054 ft 259 kts 284°
2026-05-06 20:31 51.82609 -1.80152 1015 ft 272 kts 285°
2026-05-06 20:31 51.83160 -1.83098 1035 ft 273 kts 296°
2026-05-06 20:31 51.83688 -1.86016 1129 ft 276 kts 268°
2026-05-06 20:32 51.82504 -1.89583 1188 ft 278 kts 216°
2026-05-06 20:32 51.81368 -1.90526 1236 ft 279 kts 201°
2026-05-06 20:32 51.79535 -1.91562 1193 ft 277 kts 186°
2026-05-06 20:32 51.77623 -1.91672 1138 ft 276 kts 181°
2026-05-06 20:33 51.75703 -1.91879 1097 ft 276 kts 184°
2026-05-06 20:33 51.73784 -1.92109 1042 ft 277 kts 185°
2026-05-06 20:33 51.71914 -1.92834 978 ft 277 kts 199°
2026-05-06 20:33 51.70300 -1.94030 1038 ft 279 kts 208°
2026-05-06 20:34 51.68665 -1.95716 969 ft 279 kts 212°
2026-05-06 20:34 51.67038 -1.97418 757 ft 278 kts 212°
2026-05-06 20:34 51.65356 -1.98893 642 ft 274 kts 198°
2026-05-06 20:34 51.63521 -1.99686 725 ft 273 kts 182°
2026-05-06 20:35 51.61609 -1.99779 782 ft 275 kts 180°
2026-05-06 20:35 51.59709 -1.99722 779 ft 273 kts 175°
2026-05-06 20:35 51.57815 -1.99542 771 ft 273 kts 174°
2026-05-06 20:35 51.55967 -1.98964 773 ft 272 kts 162°
2026-05-06 20:36 51.54150 -1.98090 744 ft 272 kts 162°
2026-05-06 20:36 51.52344 -1.97181 731 ft 272 kts 159°
2026-05-06 20:36 51.50551 -1.96231 765 ft 271 kts 170°
2026-05-06 20:36 51.48739 -1.96768 1005 ft 276 kts 208°
2026-05-06 20:37 51.47368 -1.98918 1046 ft 279 kts 230°
2026-05-06 20:37 51.46109 -2.01284 957 ft 279 kts 227°
2026-05-06 20:37 51.44598 -2.03165 839 ft 276 kts 204°
2026-05-06 20:37 51.42782 -2.04149 771 ft 277 kts 197°
2026-05-06 20:38 51.40986 -2.05180 796 ft 274 kts 203°
2026-05-06 20:38 51.39298 -2.06617 809 ft 275 kts 208°
2026-05-06 20:38 51.37628 -2.08113 800 ft 275 kts 208°
2026-05-06 20:38 51.36030 -2.09804 791 ft 276 kts 223°
2026-05-06 20:39 51.35045 -2.12415 889 ft 279 kts 250°
2026-05-06 20:39 51.34318 -2.15282 742 ft 275 kts 233°
2026-05-06 20:39 51.32810 -2.17089 681 ft 275 kts 209°
2026-05-06 20:39 51.31158 -2.18648 690 ft 275 kts 210°
2026-05-06 20:40 51.29533 -2.20255 810 ft 275 kts 210°
2026-05-06 20:40 51.27733 -2.21132 959 ft 273 kts 180°
2026-05-06 20:40 51.25944 -2.20342 1095 ft 269 kts 143°
2026-05-06 20:40 51.24769 -2.18057 1187 ft 268 kts 121°
2026-05-06 20:41 51.23802 -2.15486 1507 ft 271 kts 118°
2026-05-06 20:41 51.22899 -2.12836 1580 ft 272 kts 116°
2026-05-06 20:41 51.22078 -2.10201 1491 ft 255 kts 115°
2026-05-06 20:41 51.21325 -2.07761 1475 ft 235 kts 115°
2026-05-06 20:42 51.20379 -2.05818 1494 ft 212 kts 139°
2026-05-06 20:42 51.19304 -2.04395 1486 ft 192 kts 137°
2026-05-06 20:42 51.18465 -2.02921 1368 ft 169 kts 106°
2026-05-06 20:42 51.18183 -2.01219 1289 ft 150 kts 103°
2026-05-06 20:43 51.17937 -1.99720 1295 ft 131 kts 103°
2026-05-06 20:43 51.17700 -1.98332 1452 ft 129 kts 104°
2026-05-06 20:43 51.17415 -1.96974 1483 ft 128 kts 105°
2026-05-06 20:43 51.17312 -1.95584 1486 ft 125 kts 84°
2026-05-06 20:44 51.17522 -1.94268 1485 ft 125 kts 65°
2026-05-06 20:44 51.18060 -1.93055 1503 ft 148 kts 44°
2026-05-06 20:44 51.19015 -1.92171 1483 ft 170 kts 16°
2026-05-06 20:44 51.20214 -1.92173 1481 ft 178 kts 345°
2026-05-06 20:45 51.21263 -1.93229 1478 ft 184 kts 313°
2026-05-06 20:45 51.21888 -1.95027 1494 ft 188 kts 293°
2026-05-06 20:45 51.22274 -1.97026 1491 ft 189 kts 285°
2026-05-06 20:45 51.22532 -1.99086 1488 ft 189 kts 281°
2026-05-06 20:46 51.22742 -2.01166 1488 ft 189 kts 280°
2026-05-06 20:46 51.22949 -2.03246 1487 ft 190 kts 281°
2026-05-06 20:46 51.23095 -2.05339 1489 ft 190 kts 268°
2026-05-06 20:46 51.22790 -2.07375 1486 ft 190 kts 242°
2026-05-06 20:47 51.21919 -2.08910 1489 ft 188 kts 208°
2026-05-06 20:47 51.20683 -2.09375 1488 ft 184 kts 172°
2026-05-06 20:47 51.19556 -2.08646 1493 ft 166 kts 136°
2026-05-06 20:47 51.18935 -2.07283 1490 ft 140 kts 111°
2026-05-06 20:48 51.18637 -2.05898 1487 ft 129 kts 102°
2026-05-06 20:48 51.18450 -2.04511 1489 ft 127 kts 96°
2026-05-06 20:48 51.18357 -2.03114 1488 ft 127 kts 93°
2026-05-06 20:48 51.18262 -2.01714 1490 ft 127 kts 96°
2026-05-06 20:49 51.18117 -2.00328 1488 ft 127 kts 99°
2026-05-06 20:49 51.17919 -1.98957 1485 ft 127 kts 102°
2026-05-06 20:49 51.17677 -1.97598 1488 ft 128 kts 108°
2026-05-06 20:49 51.17339 -1.96290 1492 ft 128 kts 110°
2026-05-06 20:50 51.16992 -1.94971 1504 ft 137 kts 110°
2026-05-06 20:50 51.16818 -1.93355 1486 ft 160 kts 73°
2026-05-06 20:50 51.17339 -1.91673 1493 ft 186 kts 59°
2026-05-06 20:50 51.18147 -1.89801 1435 ft 221 kts 53°
2026-05-06 20:51 51.19166 -1.87872 1383 ft 231 kts 47°
2026-05-06 20:51 51.20297 -1.86030 1401 ft 233 kts 44°
2026-05-06 20:51 51.21482 -1.84257 1400 ft 233 kts 43°
2026-05-06 20:51 51.22689 -1.82520 1400 ft 234 kts 42°
2026-05-06 20:52 51.23862 -1.80741 1395 ft 233 kts 50°
2026-05-06 20:52 51.24719 -1.78547 1402 ft 234 kts 63°
2026-05-06 20:52 51.25351 -1.76151 1400 ft 235 kts 69°
2026-05-06 20:52 51.26000 -1.73804 1394 ft 222 kts 62°
2026-05-06 20:53 51.26685 -1.71790 1384 ft 192 kts 60°
2026-05-06 20:53 51.27151 -1.69940 1388 ft 169 kts 79°
2026-05-06 20:53 51.27084 -1.68175 1395 ft 152 kts 96°
2026-05-06 20:53 51.26982 -1.66497 1387 ft 159 kts 86°
2026-05-06 20:54 51.27237 -1.64755 1402 ft 169 kts 60°
2026-05-06 20:54 51.28072 -1.63460 1405 ft 172 kts 25°
2026-05-06 20:54 51.29248 -1.63209 1400 ft 179 kts 351°
2026-05-06 20:54 51.30408 -1.64211 1402 ft 204 kts 315°
2026-05-06 20:55 51.31331 -1.66139 1415 ft 232 kts 307°
2026-05-06 20:55 51.32306 -1.68284 1405 ft 242 kts 309°
2026-05-06 20:55 51.33331 -1.70381 1377 ft 231 kts 309°
2026-05-06 20:55 51.34141 -1.72430 1370 ft 207 kts 297°
2026-05-06 20:56 51.34539 -1.74535 1377 ft 193 kts 281°
2026-05-06 20:56 51.34385 -1.76600 1380 ft 188 kts 244°
2026-05-06 20:56 51.33628 -1.78172 1383 ft 171 kts 221°
2026-05-06 20:56 51.32701 -1.79182 1374 ft 152 kts 204°
2026-05-06 20:57 51.31744 -1.79689 1405 ft 140 kts 186°
2026-05-06 20:57 51.30792 -1.79667 1405 ft 136 kts 163°
2026-05-06 20:57 51.29951 -1.79050 1396 ft 131 kts 138°
2026-05-06 20:57 51.29360 -1.77966 1395 ft 129 kts 119°
2026-05-06 20:58 51.28940 -1.76710 1400 ft 128 kts 111°
2026-05-06 20:58 51.28588 -1.75406 1398 ft 128 kts 109°
2026-05-06 20:58 51.28258 -1.74090 1400 ft 128 kts 108°
2026-05-06 20:58 51.27931 -1.72769 1396 ft 128 kts 108°
2026-05-06 20:59 51.27604 -1.71470 1398 ft 128 kts 108°
2026-05-06 20:59 51.27272 -1.70169 1396 ft 129 kts 109°
2026-05-06 20:59 51.26930 -1.68847 1398 ft 129 kts 109°
2026-05-06 20:59 51.26663 -1.67494 1397 ft 127 kts 97°
2026-05-06 21:00 51.26644 -1.66105 1395 ft 124 kts 78°
2026-05-06 21:00 51.26932 -1.64823 1394 ft 126 kts 57°
2026-05-06 21:00 51.27638 -1.63642 1404 ft 174 kts 33°
2026-05-06 21:00 51.28964 -1.63032 1409 ft 229 kts
2026-05-06 21:01 51.30679 -1.63272 1408 ft 260 kts 351°
2026-05-06 21:01 51.31862 -1.63712 1404 ft 267 kts 347°
2026-05-06 21:01 51.34241 -1.64944 1391 ft 270 kts 341°
2026-05-06 21:01 51.36015 -1.66049 1388 ft 270 kts 340°
2026-05-06 21:02 51.37746 -1.67217 1370 ft 270 kts 338°
2026-05-06 21:02 51.39459 -1.68467 1354 ft 271 kts 337°
2026-05-06 21:02 51.41175 -1.69726 1237 ft 271 kts 336°
2026-05-06 21:02 51.42329 -1.70589 1110 ft 271 kts 336°
2026-05-06 21:03 51.44630 -1.72093 1016 ft 269 kts 341°